Terminal Aerodrome Forecast
Issued by NWS

Home | Current Version | Previous Version | Text Only | Print | Product List | Glossary On
Versions: 1 2 3 4 5 6 7 8 9 10 11 12 13 14 15 16 17 18 19 20 21 22 23 24 25 26 27 28 29 30
000
FTUS43 KDLH 291500 AAB
TAFBRD
TAF AMD
KBRD 291522Z 2915/3012 33014G24KT P6SM OVC017
      TEMPO 2917/2920 5SM -SN
     FM292000 34014G23KT P6SM SCT018
     FM300300 35007KT P6SM SCT010 BKN150=

USA.gov is the U.S. government's official web portal to all federal, state and local government web resources and services.